sensor_id;sensor_type;location;lat;lon;timestamp;P1;durP1;ratioP1;P2;durP2;ratioP2
31786;SDS011;18356;52.380;9.820;2023-01-26T00:01:50;99.57;;;35.07;;
31786;SDS011;18356;52.380;9.820;2023-01-26T00:04:17;102.33;;;36.17;;
31786;SDS011;18356;52.380;9.820;2023-01-26T00:06:43;99.63;;;36.47;;
31786;SDS011;18356;52.380;9.820;2023-01-26T00:09:11;108.80;;;37.13;;
31786;SDS011;18356;52.380;9.820;2023-01-26T00:11:38;109.00;;;36.70;;
31786;SDS011;18356;52.380;9.820;2023-01-26T00:14:04;104.30;;;37.47;;
31786;SDS011;18356;52.380;9.820;2023-01-26T00:16:30;107.90;;;35.83;;
31786;SDS011;18356;52.380;9.820;2023-01-26T00:18:56;111.67;;;38.60;;
31786;SDS011;18356;52.380;9.820;2023-01-26T00:21:23;114.27;;;38.30;;
31786;SDS011;18356;52.380;9.820;2023-01-26T00:23:49;102.33;;;36.63;;
31786;SDS011;18356;52.380;9.820;2023-01-26T00:26:17;110.00;;;38.57;;
31786;SDS011;18356;52.380;9.820;2023-01-26T00:28:43;109.50;;;38.57;;
31786;SDS011;18356;52.380;9.820;2023-01-26T00:31:10;113.93;;;39.30;;
31786;SDS011;18356;52.380;9.820;2023-01-26T00:33:37;101.87;;;38.17;;
31786;SDS011;18356;52.380;9.820;2023-01-26T00:36:03;109.47;;;38.07;;
31786;SDS011;18356;52.380;9.820;2023-01-26T00:38:29;113.83;;;38.20;;
31786;SDS011;18356;52.380;9.820;2023-01-26T00:40:55;114.27;;;39.60;;
31786;SDS011;18356;52.380;9.820;2023-01-26T00:43:21;114.20;;;39.10;;
31786;SDS011;18356;52.380;9.820;2023-01-26T00:45:47;109.10;;;37.63;;
31786;SDS011;18356;52.380;9.820;2023-01-26T00:48:13;115.53;;;39.83;;
31786;SDS011;18356;52.380;9.820;2023-01-26T00:50:39;114.43;;;38.73;;
31786;SDS011;18356;52.380;9.820;2023-01-26T00:53:05;113.67;;;39.27;;
31786;SDS011;18356;52.380;9.820;2023-01-26T00:55:31;119.57;;;39.83;;
31786;SDS011;18356;52.380;9.820;2023-01-26T00:57:58;109.90;;;38.13;;
31786;SDS011;18356;52.380;9.820;2023-01-26T01:00:24;113.67;;;38.13;;
31786;SDS011;18356;52.380;9.820;2023-01-26T01:02:50;119.50;;;39.77;;
31786;SDS011;18356;52.380;9.820;2023-01-26T01:05:16;120.13;;;40.07;;
31786;SDS011;18356;52.380;9.820;2023-01-26T01:07:42;115.17;;;36.80;;
31786;SDS011;18356;52.380;9.820;2023-01-26T01:10:08;108.17;;;36.23;;
31786;SDS011;18356;52.380;9.820;2023-01-26T01:12:35;116.40;;;37.67;;
31786;SDS011;18356;52.380;9.820;2023-01-26T01:15:01;111.23;;;36.17;;
31786;SDS011;18356;52.380;9.820;2023-01-26T01:17:27;109.93;;;36.03;;
31786;SDS011;18356;52.380;9.820;2023-01-26T01:19:53;100.13;;;35.23;;
31786;SDS011;18356;52.380;9.820;2023-01-26T01:22:19;116.13;;;37.13;;
31786;SDS011;18356;52.380;9.820;2023-01-26T01:24:45;114.43;;;37.10;;
31786;SDS011;18356;52.380;9.820;2023-01-26T01:27:11;119.27;;;37.17;;
31786;SDS011;18356;52.380;9.820;2023-01-26T01:29:37;114.40;;;36.87;;
31786;SDS011;18356;52.380;9.820;2023-01-26T01:32:03;114.50;;;35.73;;
31786;SDS011;18356;52.380;9.820;2023-01-26T01:34:29;100.83;;;34.20;;
31786;SDS011;18356;52.380;9.820;2023-01-26T01:36:55;106.87;;;36.13;;
31786;SDS011;18356;52.380;9.820;2023-01-26T01:39:21;118.00;;;35.30;;
31786;SDS011;18356;52.380;9.820;2023-01-26T01:41:47;109.37;;;34.77;;
31786;SDS011;18356;52.380;9.820;2023-01-26T01:44:14;103.13;;;34.30;;
31786;SDS011;18356;52.380;9.820;2023-01-26T01:46:52;116.97;;;35.23;;
31786;SDS011;18356;52.380;9.820;2023-01-26T01:49:29;110.33;;;34.90;;
31786;SDS011;18356;52.380;9.820;2023-01-26T01:51:58;110.57;;;35.43;;
31786;SDS011;18356;52.380;9.820;2023-01-26T01:54:27;118.50;;;36.07;;
31786;SDS011;18356;52.380;9.820;2023-01-26T01:56:54;110.30;;;35.10;;
31786;SDS011;18356;52.380;9.820;2023-01-26T01:59:22;110.60;;;33.13;;
31786;SDS011;18356;52.380;9.820;2023-01-26T02:01:49;122.70;;;36.50;;
31786;SDS011;18356;52.380;9.820;2023-01-26T02:04:16;111.60;;;36.67;;
31786;SDS011;18356;52.380;9.820;2023-01-26T02:06:47;112.53;;;34.87;;
31786;SDS011;18356;52.380;9.820;2023-01-26T02:09:14;116.47;;;33.17;;
31786;SDS011;18356;52.380;9.820;2023-01-26T02:12:00;105.63;;;32.70;;
31786;SDS011;18356;52.380;9.820;2023-01-26T02:14:27;111.00;;;34.90;;
31786;SDS011;18356;52.380;9.820;2023-01-26T02:16:53;106.90;;;33.60;;
31786;SDS011;18356;52.380;9.820;2023-01-26T02:19:27;112.43;;;34.77;;
31786;SDS011;18356;52.380;9.820;2023-01-26T02:21:58;108.47;;;32.40;;
31786;SDS011;18356;52.380;9.820;2023-01-26T02:24:27;106.67;;;32.60;;
31786;SDS011;18356;52.380;9.820;2023-01-26T02:26:54;111.83;;;33.53;;
31786;SDS011;18356;52.380;9.820;2023-01-26T02:29:20;106.80;;;32.17;;
31786;SDS011;18356;52.380;9.820;2023-01-26T02:31:47;110.50;;;34.60;;
31786;SDS011;18356;52.380;9.820;2023-01-26T02:34:13;101.10;;;31.43;;
31786;SDS011;18356;52.380;9.820;2023-01-26T02:36:39;106.90;;;31.67;;
31786;SDS011;18356;52.380;9.820;2023-01-26T02:41:31;99.07;;;31.47;;
31786;SDS011;18356;52.380;9.820;2023-01-26T02:44:16;96.87;;;30.73;;
31786;SDS011;18356;52.380;9.820;2023-01-26T02:46:42;105.87;;;30.90;;
31786;SDS011;18356;52.380;9.820;2023-01-26T02:49:08;104.63;;;32.20;;
31786;SDS011;18356;52.380;9.820;2023-01-26T02:51:52;90.73;;;29.23;;
31786;SDS011;18356;52.380;9.820;2023-01-26T02:54:18;110.77;;;32.67;;
31786;SDS011;18356;52.380;9.820;2023-01-26T02:57:03;114.93;;;31.87;;
31786;SDS011;18356;52.380;9.820;2023-01-26T02:59:29;110.80;;;31.63;;
31786;SDS011;18356;52.380;9.820;2023-01-26T03:01:55;100.00;;;31.03;;
31786;SDS011;18356;52.380;9.820;2023-01-26T03:04:22;93.43;;;29.57;;
31786;SDS011;18356;52.380;9.820;2023-01-26T03:06:48;102.33;;;31.67;;
31786;SDS011;18356;52.380;9.820;2023-01-26T03:09:14;105.57;;;31.00;;
31786;SDS011;18356;52.380;9.820;2023-01-26T03:11:40;105.63;;;32.70;;
31786;SDS011;18356;52.380;9.820;2023-01-26T03:14:10;102.53;;;30.87;;
31786;SDS011;18356;52.380;9.820;2023-01-26T03:16:36;108.47;;;31.13;;
31786;SDS011;18356;52.380;9.820;2023-01-26T03:19:03;96.27;;;30.20;;
31786;SDS011;18356;52.380;9.820;2023-01-26T03:21:29;102.50;;;31.43;;
31786;SDS011;18356;52.380;9.820;2023-01-26T03:24:14;96.57;;;28.60;;
31786;SDS011;18356;52.380;9.820;2023-01-26T03:26:59;97.83;;;29.57;;
31786;SDS011;18356;52.380;9.820;2023-01-26T03:29:44;105.10;;;30.90;;
31786;SDS011;18356;52.380;9.820;2023-01-26T03:32:10;91.80;;;28.83;;
31786;SDS011;18356;52.380;9.820;2023-01-26T03:34:36;90.53;;;28.70;;
31786;SDS011;18356;52.380;9.820;2023-01-26T03:37:03;97.53;;;28.87;;
31786;SDS011;18356;52.380;9.820;2023-01-26T03:39:29;110.20;;;31.17;;
31786;SDS011;18356;52.380;9.820;2023-01-26T03:42:13;107.80;;;29.67;;
31786;SDS011;18356;52.380;9.820;2023-01-26T03:44:58;109.20;;;29.90;;
31786;SDS011;18356;52.380;9.820;2023-01-26T03:47:43;103.90;;;29.03;;
31786;SDS011;18356;52.380;9.820;2023-01-26T03:50:28;114.30;;;30.23;;
31786;SDS011;18356;52.380;9.820;2023-01-26T03:53:17;103.80;;;29.90;;
31786;SDS011;18356;52.380;9.820;2023-01-26T03:56:03;113.13;;;29.90;;
31786;SDS011;18356;52.380;9.820;2023-01-26T03:58:49;123.20;;;32.03;;
31786;SDS011;18356;52.380;9.820;2023-01-26T04:01:15;106.83;;;30.00;;
31786;SDS011;18356;52.380;9.820;2023-01-26T04:03:45;116.07;;;31.73;;
31786;SDS011;18356;52.380;9.820;2023-01-26T04:06:30;101.53;;;28.43;;
31786;SDS011;18356;52.380;9.820;2023-01-26T04:09:15;111.50;;;30.67;;
31786;SDS011;18356;52.380;9.820;2023-01-26T04:11:41;115.43;;;31.37;;
31786;SDS011;18356;52.380;9.820;2023-01-26T04:14:09;111.90;;;31.30;;
31786;SDS011;18356;52.380;9.820;2023-01-26T04:16:54;113.47;;;31.83;;
31786;SDS011;18356;52.380;9.820;2023-01-26T04:19:39;103.23;;;29.30;;
31786;SDS011;18356;52.380;9.820;2023-01-26T04:22:24;113.43;;;30.10;;
31786;SDS011;18356;52.380;9.820;2023-01-26T04:24:50;110.30;;;31.47;;
31786;SDS011;18356;52.380;9.820;2023-01-26T04:27:16;101.63;;;28.50;;
31786;SDS011;18356;52.380;9.820;2023-01-26T04:29:42;114.63;;;31.07;;
31786;SDS011;18356;52.380;9.820;2023-01-26T04:32:08;103.97;;;29.60;;
31786;SDS011;18356;52.380;9.820;2023-01-26T04:34:34;113.50;;;29.47;;
31786;SDS011;18356;52.380;9.820;2023-01-26T04:37:00;120.30;;;29.43;;
31786;SDS011;18356;52.380;9.820;2023-01-26T04:39:26;118.47;;;29.00;;
31786;SDS011;18356;52.380;9.820;2023-01-26T04:41:52;102.23;;;28.77;;
31786;SDS011;18356;52.380;9.820;2023-01-26T04:44:18;97.93;;;29.53;;
31786;SDS011;18356;52.380;9.820;2023-01-26T04:46:44;99.77;;;28.97;;
31786;SDS011;18356;52.380;9.820;2023-01-26T04:49:12;112.97;;;29.97;;
31786;SDS011;18356;52.380;9.820;2023-01-26T04:51:38;102.67;;;28.60;;
31786;SDS011;18356;52.380;9.820;2023-01-26T04:54:04;91.70;;;28.17;;
31786;SDS011;18356;52.380;9.820;2023-01-26T04:56:31;115.83;;;30.43;;
31786;SDS011;18356;52.380;9.820;2023-01-26T04:58:58;96.63;;;29.00;;
31786;SDS011;18356;52.380;9.820;2023-01-26T05:01:25;97.33;;;27.73;;
31786;SDS011;18356;52.380;9.820;2023-01-26T05:03:51;118.80;;;31.10;;
31786;SDS011;18356;52.380;9.820;2023-01-26T05:06:17;107.13;;;29.27;;
31786;SDS011;18356;52.380;9.820;2023-01-26T05:08:43;102.67;;;29.43;;
31786;SDS011;18356;52.380;9.820;2023-01-26T05:11:09;117.77;;;31.60;;
31786;SDS011;18356;52.380;9.820;2023-01-26T05:13:35;114.87;;;30.20;;
31786;SDS011;18356;52.380;9.820;2023-01-26T05:16:02;98.63;;;28.60;;
31786;SDS011;18356;52.380;9.820;2023-01-26T05:18:28;104.03;;;28.97;;
31786;SDS011;18356;52.380;9.820;2023-01-26T05:20:54;97.67;;;29.43;;
31786;SDS011;18356;52.380;9.820;2023-01-26T05:23:20;104.57;;;30.77;;
31786;SDS011;18356;52.380;9.820;2023-01-26T05:25:46;120.43;;;30.37;;
31786;SDS011;18356;52.380;9.820;2023-01-26T05:28:12;107.23;;;30.73;;
31786;SDS011;18356;52.380;9.820;2023-01-26T05:30:38;99.23;;;30.07;;
31786;SDS011;18356;52.380;9.820;2023-01-26T05:33:05;106.97;;;29.53;;
31786;SDS011;18356;52.380;9.820;2023-01-26T05:35:31;121.13;;;30.77;;
31786;SDS011;18356;52.380;9.820;2023-01-26T05:37:57;107.57;;;29.80;;
31786;SDS011;18356;52.380;9.820;2023-01-26T05:40:24;104.90;;;30.00;;
31786;SDS011;18356;52.380;9.820;2023-01-26T05:42:50;109.87;;;31.83;;
31786;SDS011;18356;52.380;9.820;2023-01-26T05:45:16;112.37;;;29.80;;
31786;SDS011;18356;52.380;9.820;2023-01-26T05:47:43;111.53;;;30.27;;
31786;SDS011;18356;52.380;9.820;2023-01-26T05:50:09;95.70;;;29.33;;
31786;SDS011;18356;52.380;9.820;2023-01-26T05:52:36;97.90;;;28.80;;
31786;SDS011;18356;52.380;9.820;2023-01-26T05:55:03;86.97;;;27.67;;
31786;SDS011;18356;52.380;9.820;2023-01-26T05:57:29;78.67;;;27.13;;
31786;SDS011;18356;52.380;9.820;2023-01-26T05:59:55;74.97;;;26.43;;
31786;SDS011;18356;52.380;9.820;2023-01-26T06:02:21;84.73;;;28.37;;
31786;SDS011;18356;52.380;9.820;2023-01-26T06:04:47;79.40;;;28.70;;
31786;SDS011;18356;52.380;9.820;2023-01-26T06:07:14;82.87;;;27.50;;
31786;SDS011;18356;52.380;9.820;2023-01-26T06:09:40;94.07;;;30.47;;
31786;SDS011;18356;52.380;9.820;2023-01-26T06:12:09;86.37;;;29.43;;
31786;SDS011;18356;52.380;9.820;2023-01-26T06:14:37;92.43;;;29.70;;
31786;SDS011;18356;52.380;9.820;2023-01-26T06:17:03;101.13;;;31.40;;
31786;SDS011;18356;52.380;9.820;2023-01-26T06:19:29;96.50;;;28.83;;
31786;SDS011;18356;52.380;9.820;2023-01-26T06:21:55;94.80;;;30.57;;
31786;SDS011;18356;52.380;9.820;2023-01-26T06:24:21;90.80;;;30.00;;
31786;SDS011;18356;52.380;9.820;2023-01-26T06:26:48;92.37;;;30.97;;
31786;SDS011;18356;52.380;9.820;2023-01-26T06:29:14;86.10;;;29.80;;
31786;SDS011;18356;52.380;9.820;2023-01-26T06:31:40;99.13;;;31.57;;
31786;SDS011;18356;52.380;9.820;2023-01-26T06:34:06;96.53;;;31.10;;
31786;SDS011;18356;52.380;9.820;2023-01-26T06:36:33;92.10;;;30.63;;
31786;SDS011;18356;52.380;9.820;2023-01-26T06:38:59;85.07;;;29.53;;
31786;SDS011;18356;52.380;9.820;2023-01-26T06:41:25;85.43;;;28.00;;
31786;SDS011;18356;52.380;9.820;2023-01-26T06:43:51;86.03;;;29.33;;
31786;SDS011;18356;52.380;9.820;2023-01-26T06:46:17;85.70;;;29.77;;
31786;SDS011;18356;52.380;9.820;2023-01-26T06:48:43;83.10;;;29.47;;
31786;SDS011;18356;52.380;9.820;2023-01-26T06:53:42;100.03;;;30.90;;
31786;SDS011;18356;52.380;9.820;2023-01-26T06:56:08;84.70;;;30.87;;
31786;SDS011;18356;52.380;9.820;2023-01-26T06:58:34;91.07;;;30.63;;
31786;SDS011;18356;52.380;9.820;2023-01-26T07:01:00;97.03;;;30.50;;
31786;SDS011;18356;52.380;9.820;2023-01-26T07:03:26;91.23;;;31.73;;
31786;SDS011;18356;52.380;9.820;2023-01-26T07:05:52;97.43;;;32.90;;
31786;SDS011;18356;52.380;9.820;2023-01-26T07:08:18;93.00;;;32.60;;
31786;SDS011;18356;52.380;9.820;2023-01-26T07:10:44;90.03;;;31.67;;
31786;SDS011;18356;52.380;9.820;2023-01-26T07:13:10;96.97;;;30.60;;
31786;SDS011;18356;52.380;9.820;2023-01-26T07:15:36;101.10;;;32.53;;
31786;SDS011;18356;52.380;9.820;2023-01-26T07:18:02;87.77;;;31.80;;
31786;SDS011;18356;52.380;9.820;2023-01-26T07:20:28;76.87;;;29.23;;
31786;SDS011;18356;52.380;9.820;2023-01-26T07:22:54;89.30;;;31.07;;
31786;SDS011;18356;52.380;9.820;2023-01-26T07:25:20;92.67;;;30.97;;
31786;SDS011;18356;52.380;9.820;2023-01-26T07:27:46;85.13;;;29.00;;
31786;SDS011;18356;52.380;9.820;2023-01-26T07:30:12;83.47;;;30.33;;
31786;SDS011;18356;52.380;9.820;2023-01-26T07:32:38;80.77;;;28.70;;
31786;SDS011;18356;52.380;9.820;2023-01-26T07:35:05;87.60;;;31.03;;
31786;SDS011;18356;52.380;9.820;2023-01-26T07:37:32;82.03;;;30.47;;
31786;SDS011;18356;52.380;9.820;2023-01-26T07:39:58;76.63;;;28.07;;
31786;SDS011;18356;52.380;9.820;2023-01-26T07:42:24;86.33;;;30.53;;
31786;SDS011;18356;52.380;9.820;2023-01-26T07:44:50;80.13;;;30.73;;
31786;SDS011;18356;52.380;9.820;2023-01-26T07:47:16;82.40;;;29.43;;
31786;SDS011;18356;52.380;9.820;2023-01-26T07:49:43;84.30;;;30.10;;
31786;SDS011;18356;52.380;9.820;2023-01-26T07:52:10;84.00;;;30.10;;
31786;SDS011;18356;52.380;9.820;2023-01-26T07:54:36;77.10;;;30.20;;
31786;SDS011;18356;52.380;9.820;2023-01-26T07:57:03;79.50;;;29.83;;
31786;SDS011;18356;52.380;9.820;2023-01-26T07:59:32;77.80;;;29.13;;
31786;SDS011;18356;52.380;9.820;2023-01-26T08:01:58;72.40;;;27.83;;
31786;SDS011;18356;52.380;9.820;2023-01-26T08:04:24;79.17;;;29.97;;
31786;SDS011;18356;52.380;9.820;2023-01-26T08:06:50;75.70;;;29.17;;
31786;SDS011;18356;52.380;9.820;2023-01-26T08:09:16;71.83;;;28.67;;
31786;SDS011;18356;52.380;9.820;2023-01-26T08:11:42;68.47;;;28.83;;
31786;SDS011;18356;52.380;9.820;2023-01-26T08:14:09;74.53;;;29.30;;
31786;SDS011;18356;52.380;9.820;2023-01-26T08:16:35;71.87;;;28.70;;
31786;SDS011;18356;52.380;9.820;2023-01-26T08:19:01;73.23;;;28.43;;
31786;SDS011;18356;52.380;9.820;2023-01-26T08:21:27;69.50;;;28.00;;
31786;SDS011;18356;52.380;9.820;2023-01-26T08:23:53;69.20;;;28.57;;
31786;SDS011;18356;52.380;9.820;2023-01-26T08:26:19;66.80;;;28.10;;
31786;SDS011;18356;52.380;9.820;2023-01-26T08:28:45;68.33;;;27.57;;
31786;SDS011;18356;52.380;9.820;2023-01-26T08:31:13;64.87;;;26.53;;
31786;SDS011;18356;52.380;9.820;2023-01-26T08:33:41;66.80;;;26.63;;
31786;SDS011;18356;52.380;9.820;2023-01-26T08:36:09;69.10;;;29.07;;
31786;SDS011;18356;52.380;9.820;2023-01-26T08:38:36;71.57;;;28.20;;
31786;SDS011;18356;52.380;9.820;2023-01-26T08:41:02;68.97;;;28.27;;
31786;SDS011;18356;52.380;9.820;2023-01-26T08:43:28;71.57;;;27.77;;
31786;SDS011;18356;52.380;9.820;2023-01-26T08:45:54;66.20;;;28.37;;
31786;SDS011;18356;52.380;9.820;2023-01-26T08:48:23;62.97;;;27.23;;
31786;SDS011;18356;52.380;9.820;2023-01-26T08:50:53;71.67;;;28.97;;
31786;SDS011;18356;52.380;9.820;2023-01-26T08:53:20;71.43;;;28.73;;
31786;SDS011;18356;52.380;9.820;2023-01-26T08:55:46;77.10;;;29.70;;
31786;SDS011;18356;52.380;9.820;2023-01-26T08:58:12;71.67;;;29.13;;
31786;SDS011;18356;52.380;9.820;2023-01-26T09:00:38;74.10;;;29.47;;
31786;SDS011;18356;52.380;9.820;2023-01-26T09:03:04;71.83;;;29.73;;
31786;SDS011;18356;52.380;9.820;2023-01-26T09:05:31;65.80;;;28.97;;
31786;SDS011;18356;52.380;9.820;2023-01-26T09:07:57;78.30;;;29.73;;
31786;SDS011;18356;52.380;9.820;2023-01-26T09:10:24;77.23;;;29.43;;
31786;SDS011;18356;52.380;9.820;2023-01-26T09:12:50;74.30;;;27.93;;
31786;SDS011;18356;52.380;9.820;2023-01-26T09:15:16;81.03;;;29.00;;
31786;SDS011;18356;52.380;9.820;2023-01-26T09:17:42;80.40;;;29.87;;
31786;SDS011;18356;52.380;9.820;2023-01-26T09:20:08;76.23;;;29.13;;
31786;SDS011;18356;52.380;9.820;2023-01-26T09:22:35;77.07;;;28.87;;
31786;SDS011;18356;52.380;9.820;2023-01-26T09:25:01;76.97;;;27.97;;
31786;SDS011;18356;52.380;9.820;2023-01-26T09:27:27;69.20;;;27.07;;
31786;SDS011;18356;52.380;9.820;2023-01-26T09:29:53;72.13;;;27.47;;
31786;SDS011;18356;52.380;9.820;2023-01-26T09:32:20;72.13;;;27.57;;
31786;SDS011;18356;52.380;9.820;2023-01-26T09:34:46;68.77;;;25.90;;
31786;SDS011;18356;52.380;9.820;2023-01-26T09:37:12;68.30;;;25.77;;
31786;SDS011;18356;52.380;9.820;2023-01-26T09:39:38;64.50;;;25.40;;
31786;SDS011;18356;52.380;9.820;2023-01-26T09:42:16;65.63;;;24.73;;
31786;SDS011;18356;52.380;9.820;2023-01-26T09:44:49;63.97;;;24.20;;
31786;SDS011;18356;52.380;9.820;2023-01-26T09:47:20;56.63;;;23.20;;
31786;SDS011;18356;52.380;9.820;2023-01-26T09:49:57;59.43;;;24.33;;
31786;SDS011;18356;52.380;9.820;2023-01-26T09:52:34;61.87;;;24.97;;
31786;SDS011;18356;52.380;9.820;2023-01-26T09:55:02;61.50;;;24.27;;
31786;SDS011;18356;52.380;9.820;2023-01-26T09:58:03;61.70;;;23.93;;
31786;SDS011;18356;52.380;9.820;2023-01-26T10:00:24;61.60;;;22.87;;
31786;SDS011;18356;52.380;9.820;2023-01-26T10:07:46;61.40;;;24.17;;
31786;SDS011;18356;52.380;9.820;2023-01-26T10:10:14;58.27;;;24.37;;
31786;SDS011;18356;52.380;9.820;2023-01-26T10:12:42;60.37;;;22.83;;
31786;SDS011;18356;52.380;9.820;2023-01-26T10:17:46;60.67;;;24.87;;
31786;SDS011;18356;52.380;9.820;2023-01-26T10:22:43;58.57;;;21.50;;
31786;SDS011;18356;52.380;9.820;2023-01-26T10:25:16;62.33;;;25.53;;
31786;SDS011;18356;52.380;9.820;2023-01-26T10:27:43;59.50;;;24.57;;
31786;SDS011;18356;52.380;9.820;2023-01-26T10:30:15;56.40;;;23.73;;
31786;SDS011;18356;52.380;9.820;2023-01-26T10:32:42;62.83;;;25.93;;
31786;SDS011;18356;52.380;9.820;2023-01-26T10:35:19;58.33;;;24.13;;
31786;SDS011;18356;52.380;9.820;2023-01-26T10:37:45;61.20;;;23.50;;
31786;SDS011;18356;52.380;9.820;2023-01-26T10:40:12;60.40;;;25.27;;
31786;SDS011;18356;52.380;9.820;2023-01-26T10:42:38;59.13;;;24.13;;
31786;SDS011;18356;52.380;9.820;2023-01-26T10:50:51;61.53;;;23.67;;
31786;SDS011;18356;52.380;9.820;2023-01-26T10:53:24;61.37;;;24.63;;
31786;SDS011;18356;52.380;9.820;2023-01-26T10:56:00;58.53;;;24.53;;
31786;SDS011;18356;52.380;9.820;2023-01-26T11:01:02;60.87;;;25.40;;
31786;SDS011;18356;52.380;9.820;2023-01-26T11:03:28;54.90;;;24.33;;
31786;SDS011;18356;52.380;9.820;2023-01-26T11:06:05;60.43;;;25.03;;
31786;SDS011;18356;52.380;9.820;2023-01-26T11:08:35;61.77;;;25.80;;
31786;SDS011;18356;52.380;9.820;2023-01-26T11:11:01;63.83;;;25.77;;
31786;SDS011;18356;52.380;9.820;2023-01-26T11:13:28;60.63;;;24.47;;
31786;SDS011;18356;52.380;9.820;2023-01-26T11:16:13;62.80;;;26.87;;
31786;SDS011;18356;52.380;9.820;2023-01-26T11:18:45;62.53;;;24.57;;
31786;SDS011;18356;52.380;9.820;2023-01-26T11:21:19;57.40;;;24.20;;
31786;SDS011;18356;52.380;9.820;2023-01-26T11:23:50;62.83;;;26.50;;
31786;SDS011;18356;52.380;9.820;2023-01-26T11:49:55;61.37;;;25.37;;
31786;SDS011;18356;52.380;9.820;2023-01-26T11:52:48;70.27;;;27.43;;
31786;SDS011;18356;52.380;9.820;2023-01-26T12:00:24;61.67;;;25.33;;
31786;SDS011;18356;52.380;9.820;2023-01-26T12:03:00;61.33;;;25.23;;
31786;SDS011;18356;52.380;9.820;2023-01-26T12:05:39;66.77;;;26.33;;
31786;SDS011;18356;52.380;9.820;2023-01-26T12:08:11;64.20;;;25.40;;
31786;SDS011;18356;52.380;9.820;2023-01-26T12:10:40;64.30;;;25.27;;
31786;SDS011;18356;52.380;9.820;2023-01-26T12:15:37;62.77;;;23.77;;
31786;SDS011;18356;52.380;9.820;2023-01-26T12:20:55;64.97;;;24.97;;
31786;SDS011;18356;52.380;9.820;2023-01-26T12:28:41;61.70;;;23.87;;
31786;SDS011;18356;52.380;9.820;2023-01-26T12:31:16;58.40;;;23.47;;
31786;SDS011;18356;52.380;9.820;2023-01-26T12:33:42;71.03;;;25.93;;
31786;SDS011;18356;52.380;9.820;2023-01-26T12:38:44;64.93;;;25.17;;
31786;SDS011;18356;52.380;9.820;2023-01-26T12:43:43;63.80;;;24.00;;
31786;SDS011;18356;52.380;9.820;2023-01-26T12:46:11;68.80;;;25.37;;
31786;SDS011;18356;52.380;9.820;2023-01-26T12:48:43;74.03;;;26.00;;
31786;SDS011;18356;52.380;9.820;2023-01-26T12:51:17;77.53;;;26.37;;
31786;SDS011;18356;52.380;9.820;2023-01-26T12:56:25;61.47;;;24.23;;
31786;SDS011;18356;52.380;9.820;2023-01-26T12:58:53;61.83;;;23.57;;
31786;SDS011;18356;52.380;9.820;2023-01-26T13:01:20;66.77;;;24.20;;
31786;SDS011;18356;52.380;9.820;2023-01-26T13:03:54;64.30;;;24.37;;
31786;SDS011;18356;52.380;9.820;2023-01-26T13:06:22;62.77;;;22.73;;
31786;SDS011;18356;52.380;9.820;2023-01-26T13:08:51;62.43;;;25.53;;
31786;SDS011;18356;52.380;9.820;2023-01-26T13:12:18;65.60;;;25.30;;
31786;SDS011;18356;52.380;9.820;2023-01-26T13:16:49;68.00;;;25.43;;
31786;SDS011;18356;52.380;9.820;2023-01-26T13:22:00;63.57;;;24.30;;
31786;SDS011;18356;52.380;9.820;2023-01-26T13:26:52;70.93;;;24.70;;
31786;SDS011;18356;52.380;9.820;2023-01-26T13:31:53;59.73;;;22.17;;
31786;SDS011;18356;52.380;9.820;2023-01-26T13:34:21;55.67;;;21.73;;
31786;SDS011;18356;52.380;9.820;2023-01-26T13:36:49;55.93;;;20.63;;
31786;SDS011;18356;52.380;9.820;2023-01-26T13:39:29;58.83;;;22.87;;
31786;SDS011;18356;52.380;9.820;2023-01-26T13:41:55;48.33;;;19.50;;
31786;SDS011;18356;52.380;9.820;2023-01-26T13:44:29;49.47;;;19.50;;
31786;SDS011;18356;52.380;9.820;2023-01-26T13:47:00;51.50;;;20.17;;
31786;SDS011;18356;52.380;9.820;2023-01-26T13:49:36;52.20;;;19.93;;
31786;SDS011;18356;52.380;9.820;2023-01-26T13:52:03;57.00;;;23.30;;
31786;SDS011;18356;52.380;9.820;2023-01-26T13:54:40;50.73;;;19.20;;
31786;SDS011;18356;52.380;9.820;2023-01-26T13:57:09;53.87;;;22.27;;
31786;SDS011;18356;52.380;9.820;2023-01-26T13:59:47;52.20;;;20.10;;
31786;SDS011;18356;52.380;9.820;2023-01-26T14:02:23;55.20;;;19.80;;
31786;SDS011;18356;52.380;9.820;2023-01-26T14:04:50;50.73;;;18.60;;
31786;SDS011;18356;52.380;9.820;2023-01-26T14:07:17;52.50;;;19.07;;
31786;SDS011;18356;52.380;9.820;2023-01-26T14:09:47;51.47;;;20.77;;
31786;SDS011;18356;52.380;9.820;2023-01-26T14:12:21;46.87;;;19.47;;
31786;SDS011;18356;52.380;9.820;2023-01-26T14:14:50;50.00;;;20.47;;
31786;SDS011;18356;52.380;9.820;2023-01-26T14:17:32;53.57;;;19.03;;
31786;SDS011;18356;52.380;9.820;2023-01-26T14:20:00;49.97;;;18.30;;
31786;SDS011;18356;52.380;9.820;2023-01-26T14:22:27;47.33;;;18.60;;
31786;SDS011;18356;52.380;9.820;2023-01-26T14:24:54;52.10;;;18.60;;
31786;SDS011;18356;52.380;9.820;2023-01-26T14:27:28;46.07;;;16.67;;
31786;SDS011;18356;52.380;9.820;2023-01-26T14:29:55;41.03;;;15.10;;
31786;SDS011;18356;52.380;9.820;2023-01-26T14:32:21;47.80;;;17.60;;
31786;SDS011;18356;52.380;9.820;2023-01-26T14:34:50;41.70;;;16.30;;
31786;SDS011;18356;52.380;9.820;2023-01-26T14:37:16;42.37;;;16.27;;
31786;SDS011;18356;52.380;9.820;2023-01-26T14:39:43;41.97;;;15.53;;
31786;SDS011;18356;52.380;9.820;2023-01-26T14:42:15;40.77;;;15.43;;
31786;SDS011;18356;52.380;9.820;2023-01-26T14:44:42;68.20;;;23.27;;
31786;SDS011;18356;52.380;9.820;2023-01-26T14:49:48;45.00;;;15.30;;
31786;SDS011;18356;52.380;9.820;2023-01-26T14:52:25;44.63;;;15.43;;
31786;SDS011;18356;52.380;9.820;2023-01-26T14:54:52;45.63;;;15.40;;
31786;SDS011;18356;52.380;9.820;2023-01-26T14:57:21;40.80;;;14.77;;
31786;SDS011;18356;52.380;9.820;2023-01-26T14:59:48;47.83;;;15.60;;
31786;SDS011;18356;52.380;9.820;2023-01-26T15:02:16;42.50;;;15.73;;
31786;SDS011;18356;52.380;9.820;2023-01-26T15:05:02;45.57;;;15.77;;
31786;SDS011;18356;52.380;9.820;2023-01-26T15:07:32;45.07;;;15.23;;
31786;SDS011;18356;52.380;9.820;2023-01-26T15:09:59;46.40;;;15.73;;
31786;SDS011;18356;52.380;9.820;2023-01-26T15:12:25;46.90;;;15.13;;
31786;SDS011;18356;52.380;9.820;2023-01-26T15:14:55;43.50;;;14.80;;
31786;SDS011;18356;52.380;9.820;2023-01-26T15:17:40;38.50;;;14.00;;
31786;SDS011;18356;52.380;9.820;2023-01-26T15:20:10;45.13;;;15.37;;
31786;SDS011;18356;52.380;9.820;2023-01-26T15:22:36;47.17;;;15.60;;
31786;SDS011;18356;52.380;9.820;2023-01-26T15:25:04;42.40;;;15.27;;
31786;SDS011;18356;52.380;9.820;2023-01-26T15:27:34;43.40;;;16.07;;
31786;SDS011;18356;52.380;9.820;2023-01-26T15:30:01;48.63;;;15.97;;
31786;SDS011;18356;52.380;9.820;2023-01-26T15:32:29;54.03;;;17.30;;
31786;SDS011;18356;52.380;9.820;2023-01-26T15:35:06;46.93;;;16.73;;
31786;SDS011;18356;52.380;9.820;2023-01-26T15:37:33;48.17;;;15.87;;
31786;SDS011;18356;52.380;9.820;2023-01-26T15:40:00;51.63;;;16.60;;
31786;SDS011;18356;52.380;9.820;2023-01-26T15:42:26;56.10;;;16.33;;
31786;SDS011;18356;52.380;9.820;2023-01-26T15:44:54;52.40;;;17.10;;
31786;SDS011;18356;52.380;9.820;2023-01-26T15:47:20;52.23;;;16.60;;
31786;SDS011;18356;52.380;9.820;2023-01-26T15:49:46;55.90;;;17.13;;